Ogden Dunes, Indiana
Current Conditions -  °F | °C
As of 10:56 AM on Tuesday 21 Oct 2014 (Local Time) from KVPZ Reporting Station
Light Rain Light Rain  
Wind Chill: 50°   Ceiling: 3700
Heat Index: 50°   Visibility: 7mi
Dew Point: 47°   Wind: 9mph
Humidity: 89%   Direction: 340°NNW
Pressure: 30.13"   Gusts: NA
Location:  41.5825°N, 87.1726°W
Report Text: KVPZ 211556Z AUTO 34008KT 7SM -RA FEW018 BKN037 OVC046 10/08 A3013 RMK AO2 RAB14 SLP203 P0000 T01000083 TSNO
Loading
Personal Weather Stations






























Interactive Weather Map
Tropical Storm Tracking
New forecast layout! Learn more

10-Day Weather Forecast

Advertisements
Track Severe Weather on mobile